Time;durP1;ratioP1;P1;durP2;ratioP2;P2;SDS_P1;SDS_P2;PMS_P1;PMS_P2;Temp;Humidity;BMP_temperature;BMP_pressure;BME280_temperature;BME280_humidity;BME280_pressure;Samples;Min_cycle;Max_cycle;Signal;HPM_P1;HPM_P2
2021/05/08 00:00:41;;;;;;;;;;;;;;;11.25;96.94;98445.16;3525584;28;19931;-60
2021/05/08 00:02:22;;;;;;;;;;;;;;;11.25;96.82;98442.56;3525566;28;20438;-59
2021/05/08 00:04:05;;;;;;;;;;;;;;;11.23;96.71;98433.94;3525302;28;19978;-60
2021/05/08 00:05:47;;;;;;;;;;;;;;;11.23;96.91;98419.22;3524862;28;19942;-48
2021/05/08 00:07:28;;;;;;;;;;;;;;;11.24;97.00;98409.72;3525680;28;20389;-46
2021/05/08 00:09:10;;;;;;;;;;;;;;;11.26;97.24;98420.94;3525350;28;19935;-59
2021/05/08 00:10:51;;;;;;;;;;;;;;;11.28;97.08;98405.34;3525887;28;19928;-60
2021/05/08 00:12:32;;;;;;;;;;;;;;;11.29;97.28;98396.66;3525003;28;19927;-47
2021/05/08 00:14:13;;;;;;;;;;;;;;;11.30;97.29;98401.00;3524689;28;19928;-48
2021/05/08 00:15:55;;;;;;;;;;;;;;;11.31;97.31;98414.00;3524542;28;19927;-48
2021/05/08 00:17:36;;;;;;;;;;;;;;;11.30;97.04;98424.38;3525329;28;19959;-60
2021/05/08 00:19:18;;;;;;;;;;;;;;;11.29;96.74;98426.13;3525641;28;20339;-59
2021/05/08 00:20:59;;;;;;;;;;;;;;;11.27;96.63;98420.06;3525403;28;19928;-47
2021/05/08 00:22:40;;;;;;;;;;;;;;;11.26;96.58;98415.75;3526257;28;19935;-47
2021/05/08 00:24:22;;;;;;;;;;;;;;;11.24;96.32;98417.50;3525168;28;19976;-46
2021/05/08 00:26:03;;;;;;;;;;;;;;;11.22;96.31;98411.47;3526051;28;20381;-46
2021/05/08 00:27:44;;;;;;;;;;;;;;;11.21;96.26;98425.31;3524813;28;20400;-59
2021/05/08 00:29:25;;;;;;;;;;;;;;;11.17;95.97;98434.84;3525320;28;19959;-47
2021/05/08 00:31:07;;;;;;;;;;;;;;;11.16;95.91;98433.13;3525498;28;19963;-58
2021/05/08 00:32:48;;;;;;;;;;;;;;;11.16;95.97;98427.09;3524725;28;20043;-47
2021/05/08 00:34:29;;;;;;;;;;;;;;;11.16;95.90;98419.28;3526334;28;19970;-46
2021/05/08 00:36:10;;;;;;;;;;;;;;;11.16;96.10;98416.69;3524547;28;20449;-58
2021/05/08 00:37:51;;;;;;;;;;;;;;;11.16;96.16;98409.75;3525891;28;20018;-46
2021/05/08 00:39:32;;;;;;;;;;;;;;;11.16;96.28;98406.31;3524523;28;19951;-58
2021/05/08 00:41:14;;;;;;;;;;;;;;;11.15;96.44;98410.66;3525435;28;19931;-58
2021/05/08 00:42:55;;;;;;;;;;;;;;;11.15;96.21;98412.41;3524276;28;19927;-58
2021/05/08 00:44:37;;;;;;;;;;;;;;;11.14;96.42;98403.72;3525018;28;20201;-58
2021/05/08 00:46:19;;;;;;;;;;;;;;;11.14;96.15;98406.31;3524739;28;19959;-59
2021/05/08 00:48:03;;;;;;;;;;;;;;;11.15;96.48;98410.66;3525178;28;19932;-58
2021/05/08 00:49:45;;;;;;;;;;;;;;;11.15;96.46;98389.03;3525739;28;19931;-58
2021/05/08 00:51:26;;;;;;;;;;;;;;;11.16;96.55;98382.97;3523384;28;20359;-58
2021/05/08 00:53:09;;;;;;;;;;;;;;;11.17;96.38;98382.09;3524747;28;20012;-58
2021/05/08 00:54:50;;;;;;;;;;;;;;;11.18;96.57;98387.28;3525246;28;19928;-46
2021/05/08 00:56:31;;;;;;;;;;;;;;;11.19;96.67;98383.78;3524774;28;19963;-47
2021/05/08 00:58:12;;;;;;;;;;;;;;;11.20;96.55;98377.72;3526127;28;19927;-58
2021/05/08 00:59:53;;;;;;;;;;;;;;;11.22;96.30;98380.31;3524128;28;19934;-58
2021/05/08 01:01:35;;;;;;;;;;;;;;;11.22;96.37;98388.97;3525984;28;20007;-57
2021/05/08 01:03:16;;;;;;;;;;;;;;;11.21;96.26;98387.22;3524444;28;20287;-46
2021/05/08 01:04:58;;;;;;;;;;;;;;;11.17;96.09;98401.13;3525207;28;19928;-45
2021/05/08 01:06:39;;;;;;;;;;;;;;;11.15;96.29;98402.03;3523885;28;20415;-47
2021/05/08 01:08:20;;;;;;;;;;;;;;;11.12;96.06;98394.25;3524334;28;19928;-57
2021/05/08 01:10:02;;;;;;;;;;;;;;;11.09;96.21;98394.28;3525058;28;20165;-58
2021/05/08 01:11:43;;;;;;;;;;;;;;;11.06;96.17;98405.56;3524066;28;19964;-45
2021/05/08 01:13:25;;;;;;;;;;;;;;;11.05;96.48;98407.28;3520423;28;19947;-57
2021/05/08 01:15:08;;;;;;;;;;;;;;;11.04;96.37;98409.88;3523363;28;19971;-46
2021/05/08 01:16:50;;;;;;;;;;;;;;;11.02;96.48;98411.63;3525181;28;19928;-58
2021/05/08 01:18:32;;;;;;;;;;;;;;;11.00;96.43;98411.63;3524039;28;19928;-58
2021/05/08 01:20:14;;;;;;;;;;;;;;;10.98;96.61;98403.00;3524544;28;19959;-47
2021/05/08 01:21:57;;;;;;;;;;;;;;;10.97;96.59;98405.59;3524966;28;20344;-46
2021/05/08 01:23:38;;;;;;;;;;;;;;;10.97;96.78;98403.91;3523779;28;19979;-46
2021/05/08 01:25:22;;;;;;;;;;;;;;;10.96;96.46;98414.28;3525606;28;19928;-46
2021/05/08 01:27:03;;;;;;;;;;;;;;;10.95;96.72;98415.16;3523713;28;19967;-58
2021/05/08 01:28:45;;;;;;;;;;;;;;;10.95;96.47;98417.75;3524337;28;20456;-58
2021/05/08 01:30:27;;;;;;;;;;;;;;;10.94;96.41;98418.63;3525420;28;19975;-46
2021/05/08 01:32:08;;;;;;;;;;;;;;;10.93;96.80;98425.53;3524256;28;19931;-46
2021/05/08 01:33:49;;;;;;;;;;;;;;;10.93;96.80;98428.13;3525199;28;19943;-58
2021/05/08 01:35:31;;;;;;;;;;;;;;;10.92;97.12;98423.81;3524134;28;19932;-46
2021/05/08 01:37:12;;;;;;;;;;;;;;;10.90;96.79;98424.69;3525064;28;19935;-46
2021/05/08 01:38:54;;;;;;;;;;;;;;;10.87;96.70;98418.66;3524026;28;20022;-46
2021/05/08 01:40:38;;;;;;;;;;;;;;;10.86;96.71;98414.38;3524099;28;19935;-47
2021/05/08 01:42:20;;;;;;;;;;;;;;;10.87;96.74;98423.00;3524418;28;19935;-46
2021/05/08 01:44:01;;;;;;;;;;;;;;;10.86;96.94;98416.97;3524181;28;19931;-47
2021/05/08 01:45:43;;;;;;;;;;;;;;;10.85;97.04;98414.38;3525319;28;19934;-59
2021/05/08 01:47:24;;;;;;;;;;;;;;;10.86;97.08;98410.88;3523497;28;19950;-59
2021/05/08 01:49:05;;;;;;;;;;;;;;;10.85;97.11;98410.03;3525186;28;19928;-60
2021/05/08 01:50:46;;;;;;;;;;;;;;;10.86;97.21;98413.47;3523573;28;20392;-59
2021/05/08 01:52:28;;;;;;;;;;;;;;;10.84;97.32;98410.91;3524139;28;19935;-60
2021/05/08 01:54:13;;;;;;;;;;;;;;;10.84;97.47;98420.41;3524801;28;19928;-60
2021/05/08 01:55:54;;;;;;;;;;;;;;;10.83;97.50;98409.19;3524063;28;19935;-47
2021/05/08 01:57:39;;;;;;;;;;;;;;;10.81;97.56;98413.53;3524719;28;19979;-47
2021/05/08 01:59:20;;;;;;;;;;;;;;;10.81;97.62;98417.84;3523480;28;20285;-46
2021/05/08 02:01:02;;;;;;;;;;;;;;;10.80;97.65;98405.75;3524779;28;19932;-46
2021/05/08 02:02:43;;;;;;;;;;;;;;;10.78;97.81;98413.56;3522106;28;20277;-46
2021/05/08 02:04:25;;;;;;;;;;;;;;;10.78;97.44;98423.94;3524025;28;19935;-46
2021/05/08 02:06:06;;;;;;;;;;;;;;;10.78;97.62;98426.53;3524302;28;20336;-46
2021/05/08 02:07:48;;;;;;;;;;;;;;;10.77;97.43;98414.41;3523782;28;19928;-46
2021/05/08 02:09:29;;;;;;;;;;;;;;;10.77;97.58;98408.38;3510588;28;19971;-46
2021/05/08 02:11:10;;;;;;;;;;;;;;;10.77;97.79;98408.38;3519809;28;19935;-46
2021/05/08 02:12:51;;;;;;;;;;;;;;;10.77;97.62;98405.78;3524883;28;19951;-47
2021/05/08 02:14:32;;;;;;;;;;;;;;;10.77;97.81;98410.97;3521051;28;20023;-46
2021/05/08 02:16:13;;;;;;;;;;;;;;;10.78;97.81;98415.31;3524333;28;19986;-47
2021/05/08 02:17:55;;;;;;;;;;;;;;;10.76;97.77;98417.00;3524126;28;19983;-46
2021/05/08 02:19:36;;;;;;;;;;;;;;;10.75;97.88;98423.94;3523757;28;19928;-48
2021/05/08 02:21:18;;;;;;;;;;;;;;;10.75;97.96;98425.69;3524857;28;19967;-47
2021/05/08 02:23:02;;;;;;;;;;;;;;;10.74;97.98;98427.44;3523262;28;20408;-47
2021/05/08 02:24:43;;;;;;;;;;;;;;;10.75;97.97;98433.47;3524794;28;19963;-59
2021/05/08 02:26:24;;;;;;;;;;;;;;;10.73;97.77;98424.84;3523576;28;20292;-59
2021/05/08 02:28:06;;;;;;;;;;;;;;;10.73;97.88;98425.69;3523422;28;20084;-60
2021/05/08 02:29:47;;;;;;;;;;;;;;;10.74;97.92;98413.56;3523576;28;19974;-47
2021/05/08 02:31:29;;;;;;;;;;;;;;;10.73;97.76;98411.88;3523529;28;19932;-59
2021/05/08 02:33:10;;;;;;;;;;;;;;;10.74;97.94;98418.75;3524524;28;20009;-60
2021/05/08 02:34:52;;;;;;;;;;;;;;;10.73;97.99;98417.91;3523029;28;19954;-60
2021/05/08 02:36:33;;;;;;;;;;;;;;;10.72;97.63;98410.13;3523864;28;19927;-60
2021/05/08 02:38:14;;;;;;;;;;;;;;;10.72;97.92;98404.94;3524290;28;20324;-60
2021/05/08 02:39:56;;;;;;;;;;;;;;;10.72;97.56;98399.75;3523366;28;19927;-59
2021/05/08 02:41:37;;;;;;;;;;;;;;;10.70;97.58;98402.38;3524073;28;20430;-59
2021/05/08 02:43:18;;;;;;;;;;;;;;;10.70;97.69;98402.38;3523406;28;19986;-59
2021/05/08 02:44:59;;;;;;;;;;;;;;;10.69;97.68;98400.66;3524592;28;19927;-59
2021/05/08 02:46:40;;;;;;;;;;;;;;;10.70;97.74;98398.91;3523198;28;19967;-47
2021/05/08 02:48:21;;;;;;;;;;;;;;;10.67;97.66;98398.06;3524040;28;19928;-48
2021/05/08 02:50:04;;;;;;;;;;;;;;;10.68;97.78;98406.72;3523530;28;20285;-46
2021/05/08 02:51:45;;;;;;;;;;;;;;;10.66;97.26;98404.13;3523350;28;20426;-47
2021/05/08 02:53:27;;;;;;;;;;;;;;;10.66;97.20;98408.47;3524667;28;19967;-58
2021/05/08 02:55:09;;;;;;;;;;;;;;;10.65;97.02;98417.97;3523084;28;19928;-58
2021/05/08 02:56:50;;;;;;;;;;;;;;;10.66;97.28;98418.84;3524159;28;20393;-58
2021/05/08 02:58:31;;;;;;;;;;;;;;;10.66;97.27;98411.91;3522970;28;19927;-58
2021/05/08 03:00:14;;;;;;;;;;;;;;;10.68;97.40;98409.31;3523897;28;20396;-58
2021/05/08 03:01:55;;;;;;;;;;;;;;;10.70;97.48;98396.31;3523478;28;19977;-58
2021/05/08 03:03:36;;;;;;;;;;;;;;;10.71;97.63;98395.47;3523171;28;20304;-58
2021/05/08 03:05:17;;;;;;;;;;;;;;;10.71;97.42;98387.69;3524231;28;19932;-58
2021/05/08 03:07:01;;;;;;;;;;;;;;;10.73;97.63;98375.56;3522827;28;19981;-58
2021/05/08 03:08:43;;;;;;;;;;;;;;;10.74;97.63;98372.97;3524251;28;20388;-58
2021/05/08 03:10:24;;;;;;;;;;;;;;;10.76;97.50;98372.91;3522895;28;20377;-58
2021/05/08 03:12:07;;;;;;;;;;;;;;;10.77;97.69;98383.28;3523872;28;20035;-58
2021/05/08 03:13:48;;;;;;;;;;;;;;;10.77;97.39;98387.63;3521854;28;19970;-58
2021/05/08 03:15:29;;;;;;;;;;;;;;;10.77;97.54;98396.25;3525022;28;19931;-46
2021/05/08 03:17:11;;;;;;;;;;;;;;;10.79;97.52;98410.06;3526537;28;19928;-48
2021/05/08 03:18:52;;;;;;;;;;;;;;;10.78;97.14;98410.97;3525386;28;19976;-46
2021/05/08 03:20:33;;;;;;;;;;;;;;;10.80;97.17;98413.56;3526760;28;20354;-57
2021/05/08 03:22:14;;;;;;;;;;;;;;;10.80;97.27;98410.94;3525323;28;19938;-58
2021/05/08 03:23:56;;;;;;;;;;;;;;;10.81;97.16;98408.34;3526309;28;20316;-47
2021/05/08 03:25:37;;;;;;;;;;;;;;;10.83;97.40;98404.00;3525721;28;19927;-46
2021/05/08 03:27:19;;;;;;;;;;;;;;;10.83;97.47;98410.94;3525961;28;19943;-47
2021/05/08 03:29:00;;;;;;;;;;;;;;;10.84;97.43;98421.28;3526386;28;19979;-46
2021/05/08 03:30:41;;;;;;;;;;;;;;;10.85;97.49;98411.78;3524632;28;20282;-45
2021/05/08 03:32:22;;;;;;;;;;;;;;;10.87;97.50;98407.44;3526483;28;20371;-58
2021/05/08 03:34:04;;;;;;;;;;;;;;;10.86;97.55;98401.41;3525588;28;20415;-57
2021/05/08 03:35:45;;;;;;;;;;;;;;;10.87;97.26;98404.84;3526102;28;19973;-59
2021/05/08 03:37:27;;;;;;;;;;;;;;;10.86;97.42;98401.41;3525439;28;19984;-58
2021/05/08 03:39:09;;;;;;;;;;;;;;;10.88;97.33;98403.94;3525333;28;20121;-58
2021/05/08 03:40:50;;;;;;;;;;;;;;;10.88;97.29;98398.75;3526177;28;19928;-58
2021/05/08 03:42:31;;;;;;;;;;;;;;;10.88;97.15;98401.34;3524837;28;19982;-58
2021/05/08 03:44:13;;;;;;;;;;;;;;;10.87;97.18;98403.09;3526418;28;19942;-58
2021/05/08 03:45:54;;;;;;;;;;;;;;;10.87;97.17;98397.91;3525277;28;20756;-47
2021/05/08 03:47:35;;;;;;;;;;;;;;;10.87;97.17;98392.72;3526087;28;19936;-47
2021/05/08 03:49:16;;;;;;;;;;;;;;;10.87;96.93;98395.31;3525576;28;20428;-58
2021/05/08 03:50:57;;;;;;;;;;;;;;;10.86;96.81;98392.72;3525743;28;19934;-46
2021/05/08 03:52:39;;;;;;;;;;;;;;;10.85;97.05;98391.88;3525955;28;20407;-46
2021/05/08 03:54:20;;;;;;;;;;;;;;;10.86;96.74;98405.69;3525455;28;19931;-46
2021/05/08 03:56:02;;;;;;;;;;;;;;;10.86;96.79;98404.00;3526046;28;19934;-58
2021/05/08 03:57:43;;;;;;;;;;;;;;;10.87;96.89;98404.84;3524723;28;19951;-59
2021/05/08 03:59:25;;;;;;;;;;;;;;;10.86;96.49;98396.22;3526287;28;19932;-58
2021/05/08 04:01:06;;;;;;;;;;;;;;;10.87;96.76;98403.09;3524995;28;19927;-58
2021/05/08 04:02:47;;;;;;;;;;;;;;;10.90;96.94;98414.31;3525613;28;20159;-58
2021/05/08 04:04:28;;;;;;;;;;;;;;;10.90;96.62;98412.59;3525422;28;19927;-58
2021/05/08 04:06:09;;;;;;;;;;;;;;;10.93;96.76;98414.31;3524969;28;19963;-58
2021/05/08 04:07:51;;;;;;;;;;;;;;;10.94;96.80;98409.09;3526068;28;20408;-58
2021/05/08 04:09:32;;;;;;;;;;;;;;;10.97;96.39;98413.41;3524988;28;19934;-58
2021/05/08 04:11:13;;;;;;;;;;;;;;;10.98;96.27;98423.75;3526030;28;20002;-58
2021/05/08 04:12:55;;;;;;;;;;;;;;;11.01;96.34;98421.16;3525006;28;19947;-45
2021/05/08 04:14:36;;;;;;;;;;;;;;;11.04;96.25;98422.84;3523599;28;20495;-46
2021/05/08 04:16:17;;;;;;;;;;;;;;;11.05;96.50;98430.63;3525700;28;19959;-46
2021/05/08 04:17:58;;;;;;;;;;;;;;;11.06;96.30;98431.50;3524938;28;19928;-46
2021/05/08 04:19:39;;;;;;;;;;;;;;;11.06;95.57;98427.16;3526292;28;19935;-58
2021/05/08 04:21:20;;;;;;;;;;;;;;;11.08;95.90;98432.34;3524475;28;19950;-59
2021/05/08 04:23:02;;;;;;;;;;;;;;;11.10;95.82;98429.75;3526182;28;19928;-58
2021/05/08 04:24:44;;;;;;;;;;;;;;;11.12;96.27;98431.44;3524418;28;19928;-58
2021/05/08 04:26:25;;;;;;;;;;;;;;;11.12;96.34;98436.63;3525563;28;19932;-59
2021/05/08 04:28:08;;;;;;;;;;;;;;;11.12;96.13;98441.81;3525457;28;19967;-58
2021/05/08 04:29:49;;;;;;;;;;;;;;;11.13;95.88;98447.88;3524790;28;19970;-59
2021/05/08 04:31:30;;;;;;;;;;;;;;;11.15;96.00;98443.53;3524657;28;20359;-59
2021/05/08 04:33:11;;;;;;;;;;;;;;;11.15;96.45;98447.00;3524656;28;19927;-59
2021/05/08 04:34:52;;;;;;;;;;;;;;;11.16;96.54;98451.28;3526110;28;19928;-46
2021/05/08 04:36:33;;;;;;;;;;;;;;;11.14;96.21;98450.44;3524566;28;19963;-45
2021/05/08 04:38:14;;;;;;;;;;;;;;;11.15;96.50;98452.19;3525246;28;19963;-46
2021/05/08 04:39:56;;;;;;;;;;;;;;;11.15;96.52;98451.34;3525001;28;19946;-45
2021/05/08 04:41:38;;;;;;;;;;;;;;;11.17;96.55;98449.59;3523986;28;20396;-45
2021/05/08 04:43:19;;;;;;;;;;;;;;;11.17;96.28;98439.19;3525406;28;19935;-46
2021/05/08 04:45:00;;;;;;;;;;;;;;;11.16;96.00;98442.66;3524839;28;19927;-46
2021/05/08 04:46:41;;;;;;;;;;;;;;;11.17;96.29;98447.84;3525484;28;19928;-45
2021/05/08 04:48:23;;;;;;;;;;;;;;;11.17;95.84;98458.22;3524495;28;20341;-45
2021/05/08 04:50:05;;;;;;;;;;;;;;;11.17;95.78;98454.78;3525207;28;19927;-47
2021/05/08 04:51:46;;;;;;;;;;;;;;;11.15;95.48;98457.38;3524649;28;19932;-46
2021/05/08 04:53:27;;;;;;;;;;;;;;;11.15;95.46;98462.56;3524649;28;20308;-45
2021/05/08 04:55:09;;;;;;;;;;;;;;;11.16;95.58;98453.03;3525490;28;20059;-45
2021/05/08 04:56:50;;;;;;;;;;;;;;;11.16;95.62;98455.63;3524039;28;20396;-46
2021/05/08 04:58:31;;;;;;;;;;;;;;;11.15;95.16;98465.16;3525452;28;19928;-45
2021/05/08 05:00:14;;;;;;;;;;;;;;;11.16;95.28;98468.59;3524260;28;19927;-45
2021/05/08 05:01:55;;;;;;;;;;;;;;;11.17;95.47;98476.38;3525109;28;19938;-46
2021/05/08 05:03:36;;;;;;;;;;;;;;;11.18;95.00;98475.53;3524792;28;19928;-57
2021/05/08 05:05:17;;;;;;;;;;;;;;;11.19;95.09;98472.03;3524252;28;19934;-57
2021/05/08 05:06:58;;;;;;;;;;;;;;;11.20;94.75;98473.78;3525189;28;19979;-45
2021/05/08 05:08:40;;;;;;;;;;;;;;;11.21;94.52;98467.69;3524202;28;19963;-46
2021/05/08 05:10:21;;;;;;;;;;;;;;;11.22;94.23;98474.63;3525576;28;20022;-57
2021/05/08 05:12:03;;;;;;;;;;;;;;;11.22;94.30;98477.22;3524275;28;19928;-57
2021/05/08 05:13:44;;;;;;;;;;;;;;;11.22;94.04;98471.16;3523649;28;19978;-44
2021/05/08 05:15:26;;;;;;;;;;;;;;;11.21;94.10;98467.69;3524328;28;19963;-44
2021/05/08 05:17:07;;;;;;;;;;;;;;;11.24;94.07;98464.22;3524522;28;19934;-45
2021/05/08 05:18:48;;;;;;;;;;;;;;;11.24;94.03;98467.69;3524874;28;19931;-44
2021/05/08 05:20:29;;;;;;;;;;;;;;;11.26;93.73;98462.47;3524129;28;19927;-45
2021/05/08 05:22:11;;;;;;;;;;;;;;;11.25;93.22;98461.63;3525096;28;19970;-45
2021/05/08 05:23:52;;;;;;;;;;;;;;;11.25;92.89;98466.81;3523914;28;19981;-44
2021/05/08 05:25:34;;;;;;;;;;;;;;;11.28;93.20;98472.84;3524753;28;19935;-45
2021/05/08 05:27:15;;;;;;;;;;;;;;;11.31;92.08;98475.44;3524302;28;19932;-44
2021/05/08 05:28:56;;;;;;;;;;;;;;;11.33;91.96;98473.72;3524480;28;19967;-57
2021/05/08 05:30:37;;;;;;;;;;;;;;;11.37;91.65;98476.25;3525378;28;19992;-44
2021/05/08 05:32:18;;;;;;;;;;;;;;;11.39;90.78;98484.91;3524426;28;20813;-57
2021/05/08 05:34:00;;;;;;;;;;;;;;;11.43;90.97;98483.16;3525570;28;20053;-44
2021/05/08 05:35:41;;;;;;;;;;;;;;;11.46;90.34;98490.03;3523948;28;20383;-45
2021/05/08 05:37:23;;;;;;;;;;;;;;;11.44;89.54;98484.84;3524316;28;20014;-45
2021/05/08 05:39:05;;;;;;;;;;;;;;;11.45;89.38;98494.38;3524447;28;20300;-56
2021/05/08 05:40:46;;;;;;;;;;;;;;;11.44;89.08;98490.03;3524299;28;19927;-46
2021/05/08 05:42:28;;;;;;;;;;;;;;;11.44;89.09;98487.44;3525322;28;20001;-45
2021/05/08 05:44:09;;;;;;;;;;;;;;;11.45;89.34;98491.78;3524041;28;19927;-57
2021/05/08 05:45:50;;;;;;;;;;;;;;;11.47;89.41;98491.75;3524811;28;20455;-57
2021/05/08 05:47:32;;;;;;;;;;;;;;;11.44;89.05;98490.88;3523432;28;19928;-46
2021/05/08 05:49:14;;;;;;;;;;;;;;;11.41;89.16;98490.94;3524470;28;19927;-45
2021/05/08 05:50:55;;;;;;;;;;;;;;;11.39;88.81;98486.63;3523597;28;20397;-45
2021/05/08 05:52:37;;;;;;;;;;;;;;;11.37;88.98;98480.59;3523775;28;19928;-45
2021/05/08 05:54:18;;;;;;;;;;;;;;;11.37;89.62;98478.00;3523611;28;20761;-44
2021/05/08 05:55:59;;;;;;;;;;;;;;;11.36;89.05;98481.44;3524167;28;20029;-45
2021/05/08 05:57:40;;;;;;;;;;;;;;;11.37;88.89;98478.00;3525223;28;19974;-45
2021/05/08 05:59:22;;;;;;;;;;;;;;;11.34;88.48;98484.09;3523535;28;20278;-45
2021/05/08 06:01:03;;;;;;;;;;;;;;;11.31;88.25;98478.91;3524163;28;20324;-45
2021/05/08 06:02:44;;;;;;;;;;;;;;;11.30;88.54;98489.28;3524186;28;19934;-56
2021/05/08 06:04:25;;;;;;;;;;;;;;;11.29;88.83;98493.59;3523800;28;20423;-45
2021/05/08 06:06:07;;;;;;;;;;;;;;;11.26;88.80;98488.44;3524472;28;20020;-45
2021/05/08 06:07:48;;;;;;;;;;;;;;;11.25;88.98;98495.38;3523604;28;19939;-56
2021/05/08 06:09:29;;;;;;;;;;;;;;;11.19;88.59;98507.53;3524766;28;19927;-44
2021/05/08 06:11:11;;;;;;;;;;;;;;;11.14;88.74;98507.56;3523543;28;19928;-47
2021/05/08 06:12:52;;;;;;;;;;;;;;;11.10;89.29;98511.06;3524285;28;19927;-47
2021/05/08 06:14:33;;;;;;;;;;;;;;;11.05;89.16;98516.25;3522457;28;19935;-47
2021/05/08 06:16:14;;;;;;;;;;;;;;;10.97;89.12;98512.88;3523519;28;20380;-46
2021/05/08 06:17:56;;;;;;;;;;;;;;;10.92;89.31;98512.03;3524581;28;19931;-59
2021/05/08 06:19:37;;;;;;;;;;;;;;;10.84;89.55;98517.25;3523408;28;20415;-58
2021/05/08 06:21:18;;;;;;;;;;;;;;;10.78;89.55;98522.50;3524558;28;19978;-59
2021/05/08 06:22:59;;;;;;;;;;;;;;;10.74;89.77;98519.91;3523379;28;19928;-58
2021/05/08 06:24:40;;;;;;;;;;;;;;;10.67;90.28;98525.16;3524449;28;19967;-46
2021/05/08 06:26:22;;;;;;;;;;;;;;;10.66;90.04;98522.56;3523606;28;19963;-47
2021/05/08 06:28:04;;;;;;;;;;;;;;;10.64;90.55;98524.31;3523684;28;20022;-47
2021/05/08 06:29:45;;;;;;;;;;;;;;;10.62;90.75;98529.50;3524121;28;19977;-48
2021/05/08 06:31:26;;;;;;;;;;;;;;;10.61;90.59;98524.31;3523311;28;19927;-47
2021/05/08 06:33:07;;;;;;;;;;;;;;;10.58;90.71;98527.81;3524466;28;20396;-46
2021/05/08 06:34:49;;;;;;;;;;;;;;;10.55;90.83;98530.41;3523150;28;19967;-45
2021/05/08 06:36:30;;;;;;;;;;;;;;;10.53;91.14;98533.84;3523912;28;19935;-46
2021/05/08 06:38:12;;;;;;;;;;;;;;;10.48;90.72;98534.75;3523705;28;20403;-46
2021/05/08 06:39:53;;;;;;;;;;;;;;;10.44;91.01;98530.47;3523367;28;19971;-47
2021/05/08 06:41:34;;;;;;;;;;;;;;;10.43;90.87;98533.06;3524392;28;19975;-58
2021/05/08 06:43:16;;;;;;;;;;;;;;;10.39;90.46;98534.81;3523108;28;20005;-59
2021/05/08 06:44:57;;;;;;;;;;;;;;;10.38;90.36;98533.06;3524967;28;19928;-46
2021/05/08 06:46:38;;;;;;;;;;;;;;;10.37;91.12;98533.06;3523001;28;19931;-46
2021/05/08 06:48:19;;;;;;;;;;;;;;;10.38;90.97;98537.38;3523816;28;19935;-49
2021/05/08 06:50:00;;;;;;;;;;;;;;;10.37;90.62;98539.13;3524344;28;19928;-46
2021/05/08 06:51:42;;;;;;;;;;;;;;;10.37;90.85;98546.91;3525980;28;19932;-45
2021/05/08 06:53:23;;;;;;;;;;;;;;;10.37;90.94;98546.03;3527488;28;20005;-46
2021/05/08 06:55:04;;;;;;;;;;;;;;;10.33;91.06;98547.75;3525566;28;20385;-47
2021/05/08 06:56:46;;;;;;;;;;;;;;;10.28;91.10;98552.09;3526818;28;19935;-47
2021/05/08 06:58:28;;;;;;;;;;;;;;;10.24;91.17;98551.25;3526040;28;19973;-56
2021/05/08 07:00:09;;;;;;;;;;;;;;;10.21;91.85;98555.59;3527017;28;19950;-48
2021/05/08 07:01:51;;;;;;;;;;;;;;;10.19;91.79;98559.91;3524897;28;19928;-58
2021/05/08 07:03:32;;;;;;;;;;;;;;;10.16;91.92;98565.09;3525981;28;20014;-59
2021/05/08 07:05:13;;;;;;;;;;;;;;;10.11;91.75;98568.56;3525335;28;19928;-58
2021/05/08 07:06:55;;;;;;;;;;;;;;;10.11;92.07;98578.94;3525643;28;19978;-46
2021/05/08 07:08:36;;;;;;;;;;;;;;;10.09;91.96;98579.81;3512753;28;19932;-46
2021/05/08 07:10:17;;;;;;;;;;;;;;;10.07;92.52;98579.81;3521721;28;19935;-45
2021/05/08 07:11:59;;;;;;;;;;;;;;;10.06;92.63;98588.44;3526830;28;20369;-54
2021/05/08 07:13:40;;;;;;;;;;;;;;;10.04;92.18;98585.00;3517885;28;19988;-54
2021/05/08 07:15:21;;;;;;;;;;;;;;;10.03;92.05;98592.78;3514667;28;19931;-49
2021/05/08 07:17:02;;;;;;;;;;;;;;;10.00;92.14;98591.06;3526011;28;19935;-54
2021/05/08 07:18:44;;;;;;;;;;;;;;;9.98;92.39;98595.34;3525274;28;20423;-53
2021/05/08 07:20:25;;;;;;;;;;;;;;;9.97;92.25;98593.66;3526647;28;19931;-46
2021/05/08 07:22:06;;;;;;;;;;;;;;;9.92;92.13;98593.66;3525325;28;20426;-45
2021/05/08 07:23:47;;;;;;;;;;;;;;;9.88;92.08;98606.63;3526585;28;20304;-46
2021/05/08 07:25:29;;;;;;;;;;;;;;;9.85;91.70;98606.63;3525608;28;19935;-45
2021/05/08 07:27:11;;;;;;;;;;;;;;;9.81;91.92;98604.91;3525922;28;19928;-47
2021/05/08 07:28:52;;;;;;;;;;;;;;;9.76;91.36;98610.06;3526186;28;20289;-47
2021/05/08 07:30:33;;;;;;;;;;;;;;;9.73;91.61;98621.31;3525632;28;19928;-47
2021/05/08 07:32:14;;;;;;;;;;;;;;;9.70;91.66;98625.59;3526925;28;19935;-50
2021/05/08 07:33:56;;;;;;;;;;;;;;;9.68;90.70;98629.91;3526179;28;19939;-48
2021/05/08 07:35:37;;;;;;;;;;;;;;;9.68;91.10;98627.31;3526632;28;19934;-46
2021/05/08 07:37:19;;;;;;;;;;;;;;;9.67;91.43;98635.97;3525768;28;19928;-48
2021/05/08 07:39:00;;;;;;;;;;;;;;;9.66;91.38;98640.25;3526773;28;19928;-56
2021/05/08 07:40:42;;;;;;;;;;;;;;;9.68;91.02;98640.28;3526259;28;20355;-57
2021/05/08 07:42:24;;;;;;;;;;;;;;;9.69;90.41;98660.13;3525888;28;19928;-44
2021/05/08 07:44:07;;;;;;;;;;;;;;;9.65;89.65;98655.81;3526784;28;20313;-46
2021/05/08 07:45:49;;;;;;;;;;;;;;;9.59;89.03;98646.31;3525575;28;19934;-46
2021/05/08 07:47:30;;;;;;;;;;;;;;;9.58;88.64;98667.00;3527519;28;19934;-56
2021/05/08 07:49:12;;;;;;;;;;;;;;;9.52;87.68;98661.00;3525411;28;19957;-57
2021/05/08 07:50:53;;;;;;;;;;;;;;;9.53;88.77;98667.88;3526366;28;19927;-57
2021/05/08 07:52:34;;;;;;;;;;;;;;;9.54;88.49;98689.44;3524821;28;19928;-48
2021/05/08 07:54:15;;;;;;;;;;;;;;;9.48;88.43;98692.88;3525956;28;19978;-58
2021/05/08 07:55:56;;;;;;;;;;;;;;;9.40;88.25;98678.16;3525655;28;20309;-58
2021/05/08 07:57:38;;;;;;;;;;;;;;;9.32;88.61;98685.94;3525439;28;19975;-46
2021/05/08 07:59:20;;;;;;;;;;;;;;;9.27;88.99;98685.03;3526299;28;20018;-47
2021/05/08 08:01:03;;;;;;;;;;;;;;;9.20;88.72;98704.00;3524539;28;19963;-57
2021/05/08 08:02:44;;;;;;;;;;;;;;;9.05;86.83;98691.88;3527201;28;19935;-46
2021/05/08 08:04:26;;;;;;;;;;;;;;;8.97;86.87;98703.03;3524669;28;19955;-47
2021/05/08 08:06:07;;;;;;;;;;;;;;;8.92;86.97;98702.19;3525966;28;19931;-46
2021/05/08 08:07:48;;;;;;;;;;;;;;;8.88;87.47;98713.34;3526325;28;19928;-47
2021/05/08 08:09:29;;;;;;;;;;;;;;;8.83;87.34;98694.34;3524879;28;19934;-46
2021/05/08 08:11:10;;;;;;;;;;;;;;;8.84;88.70;98708.16;3526346;28;19978;-58
2021/05/08 08:12:56;;;;;;;;;;;;;;;8.86;88.61;98702.13;3525912;28;19963;-58
2021/05/08 08:14:37;;;;;;;;;;;;;;;8.87;88.16;98711.63;3514503;28;19928;-57
2021/05/08 08:16:18;;;;;;;;;;;;;;;8.92;89.62;98712.53;3524802;28;20412;-47
2021/05/08 08:18:00;;;;;;;;;;;;;;;8.96;88.88;98710.81;3525055;28;19981;-46
2021/05/08 08:19:41;;;;;;;;;;;;;;;9.05;89.81;98710.84;3526618;28;19935;-46
2021/05/08 08:21:23;;;;;;;;;;;;;;;9.09;89.17;98711.72;3524978;28;19981;-58
2021/05/08 08:23:04;;;;;;;;;;;;;;;9.07;88.80;98708.28;3525379;28;19934;-57
2021/05/08 08:24:45;;;;;;;;;;;;;;;9.04;87.77;98716.00;3525544;28;20543;-56
2021/05/08 08:26:26;;;;;;;;;;;;;;;8.96;88.04;98714.25;3525468;28;19932;-46
2021/05/08 08:28:08;;;;;;;;;;;;;;;8.97;88.13;98723.72;3525973;28;19928;-56
2021/05/08 08:29:49;;;;;;;;;;;;;;;9.04;89.37;98726.34;3524715;28;19971;-45
2021/05/08 08:31:30;;;;;;;;;;;;;;;9.21;89.28;98716.09;3526415;28;20823;-57
2021/05/08 08:33:12;;;;;;;;;;;;;;;9.27;85.08;98742.84;3524880;28;19928;-56
2021/05/08 08:34:53;;;;;;;;;;;;;;;9.35;86.41;98737.72;3526137;28;19928;-57
2021/05/08 08:36:34;;;;;;;;;;;;;;;9.28;84.45;98728.19;3524766;28;19973;-57
2021/05/08 08:38:15;;;;;;;;;;;;;;;9.22;85.00;98725.56;3525706;28;19927;-56
2021/05/08 08:39:56;;;;;;;;;;;;;;;9.13;85.97;98735.00;3526128;28;19983;-45
2021/05/08 08:41:37;;;;;;;;;;;;;;;9.11;85.60;98741.91;3526178;28;19981;-45
2021/05/08 08:43:19;;;;;;;;;;;;;;;9.10;86.75;98740.19;3526377;28;20300;-45
2021/05/08 08:45:00;;;;;;;;;;;;;;;9.07;85.59;98757.44;3525197;28;20027;-45
2021/05/08 08:46:42;;;;;;;;;;;;;;;9.12;87.65;98733.31;3525927;28;19971;-56
2021/05/08 08:48:23;;;;;;;;;;;;;;;9.20;87.45;98746.25;3524528;28;19959;-45